»·PEaware :: N106MR KSAN-KSNA

N106MR :: KSAN-KSNA

FLIGHT INFORMATION

Flight Status: Arrived
Operator: Privately registered:
United States
More flights under this callsign
Pilot: Michael R. (16974)
Aircraft: MITSUBISHI MU-2 MARQUISE
(MU2)
More flights by this aircraft type
Origin: KSAN San Diego Intl-Lindbergh
United States
Destination: KSNA John Wayne-Orange Co
United States
More flights between these airports :: More routes between these airports
Route: PEBLE6 SLI
File this flight plan on PilotEdge
Remarks:
Altitude:
(Current/Filed)
6,000ft
Speed:
(Current/Filed)
270kts
Departed: 05-Jan-18 05:22 PM
Arrived: 05-Jan-18 05:55 PM
Distance/Time
Traveled:
66nm/0:33
Distance/Time
To Go:
Arrived

Flight Plot

Page will automatically refresh every two minutes.


Map Options




Map Legend


Flown Route
Filed Route
Departure Airport
Arrival Airport
Navaid (VOR, NDB)
Fix

Horizontal Profiles

Position Reports

Time Latitude Longitude Heading Altitude Ground
Speed
05-Jan-18 17:08 32.732420 -117.176642 194 20ft 0kts
05-Jan-18 17:09 32.732420 -117.176642 194 20ft 0kts
05-Jan-18 17:10 32.732420 -117.176642 194 20ft 0kts
05-Jan-18 17:11 32.732420 -117.176642 194 20ft 0kts
05-Jan-18 17:12 32.732420 -117.176642 194 20ft 0kts
05-Jan-18 17:13 32.732420 -117.176642 194 20ft 0kts
05-Jan-18 17:14 32.732420 -117.176642 194 20ft 0kts
05-Jan-18 17:15 32.732420 -117.176642 194 20ft 0kts
05-Jan-18 17:16 32.732420 -117.176642 194 20ft 0kts
05-Jan-18 17:17 32.732420 -117.176642 194 20ft 0kts
05-Jan-18 17:18 32.732420 -117.176642 194 20ft 0kts
05-Jan-18 17:19 32.732420 -117.176642 194 20ft 0kts
05-Jan-18 17:20 32.732420 -117.176642 194 20ft 0kts
05-Jan-18 17:21 32.732420 -117.176642 194 20ft 0kts
05-Jan-18 17:22 32.732420 -117.176642 194 20ft 0kts
05-Jan-18 17:23 32.731726 -117.176844 181 20ft 7kts
05-Jan-18 17:24 32.730898 -117.175459 137 21ft 0kts
05-Jan-18 17:25 32.730898 -117.175459 137 21ft 0kts
05-Jan-18 17:26 32.730898 -117.175459 137 21ft 0kts
05-Jan-18 17:27 32.730283 -117.176182 284 20ft 0kts
05-Jan-18 17:28 32.732045 -117.183466 289 27ft 119kts
05-Jan-18 17:29 32.742665 -117.221010 303 2121ft 113kts
05-Jan-18 17:30 32.759046 -117.249926 304 3982ft 113kts
05-Jan-18 17:31 32.784886 -117.271717 328 5743ft 120kts
05-Jan-18 17:32 32.815590 -117.291649 328 7146ft 145kts
05-Jan-18 17:33 32.848058 -117.324364 305 8014ft 177kts
05-Jan-18 17:34 32.880226 -117.374589 305 7998ft 216kts
05-Jan-18 17:35 32.920490 -117.436949 307 7994ft 252kts
05-Jan-18 17:36 32.965064 -117.504102 306 7991ft 262kts
05-Jan-18 17:37 33.010020 -117.572718 306 7991ft 264kts
05-Jan-18 17:38 33.055279 -117.641779 306 7994ft 264kts
05-Jan-18 17:39 33.100244 -117.710244 306 8010ft 263kts
05-Jan-18 17:40 33.149764 -117.771994 314 8010ft 264kts
05-Jan-18 17:41 33.205858 -117.827001 338 8015ft 267kts
05-Jan-18 17:42 33.272617 -117.863145 332 8001ft 268kts
05-Jan-18 17:43 33.341624 -117.897064 338 8001ft 270kts
05-Jan-18 17:44 33.412711 -117.926863 338 7980ft 270kts
05-Jan-18 17:45 33.484363 -117.954159 342 7982ft 271kts
05-Jan-18 17:46 33.555232 -117.977893 342 5407ft 262kts
05-Jan-18 17:47 33.617921 -117.978902 11 4570ft 213kts
05-Jan-18 17:48 33.669732 -117.964478 11 3976ft 181kts
05-Jan-18 17:49 33.712470 -117.950590 21 3907ft 146kts
05-Jan-18 17:50 33.753134 -117.929868 20 3041ft 168kts
05-Jan-18 17:51 33.792647 -117.910037 19 2975ft 146kts
05-Jan-18 17:52 33.828705 -117.892244 31 2982ft 179kts
05-Jan-18 17:53 33.862216 -117.841897 50 2974ft 194kts
05-Jan-18 17:54 33.889769 -117.791928 90 2967ft 171kts
05-Jan-18 17:55 33.864433 -117.752383 189 2978ft 164kts
05-Jan-18 17:56 33.823801 -117.774811 210 3015ft 162kts
05-Jan-18 17:57 33.780995 -117.801927 210 2307ft 163kts
05-Jan-18 17:58 33.746476 -117.823936 210 1504ft 126kts
05-Jan-18 17:59 33.717048 -117.842641 209 869ft 121kts
05-Jan-18 18:00 33.687450 -117.861390 208 226ft 110kts
05-Jan-18 18:01 33.674089 -117.870372 284 60ft 13kts
05-Jan-18 18:02 33.673447 -117.872697 39 60ft 6kts
05-Jan-18 18:03 33.673418 -117.872494 120 60ft 0kts
05-Jan-18 18:04 33.673418 -117.872494 120 60ft 0kts
05-Jan-18 18:05 33.673418 -117.872494 120 60ft 0kts
05-Jan-18 18:06 33.673418 -117.872494 120 60ft 0kts
05-Jan-18 18:07 33.673418 -117.872494 120 60ft 0kts
05-Jan-18 18:08 33.673418 -117.872494 120 60ft 0kts
05-Jan-18 18:09 33.673418 -117.872494 120 60ft 0kts
05-Jan-18 18:10 33.673418 -117.872494 120 60ft 0kts
05-Jan-18 18:11 33.673418 -117.872494 120 60ft 0kts
05-Jan-18 18:12 33.673418 -117.872494 120 60ft 0kts
05-Jan-18 18:13 33.673418 -117.872494 120 60ft 0kts
05-Jan-18 18:14 33.673418 -117.872494 120 60ft 0kts
05-Jan-18 18:15 33.673418 -117.872494 120 60ft 0kts
05-Jan-18 18:16 33.673418 -117.872494 120 60ft 0kts

Navigation Log

Ident Type
Flight plan parsing failed, navigation log unavailable